createdAt,value
2019-02-26T00:02:21.497Z,3.27
2019-02-26T00:04:54.083Z,3.20
2019-02-26T00:07:28.133Z,3.22
2019-02-26T00:09:59.625Z,3.18
2019-02-26T00:12:33.144Z,3.32
2019-02-26T00:15:07.038Z,3.25
2019-02-26T00:17:40.551Z,3.28
2019-02-26T00:20:12.809Z,3.29
2019-02-26T00:22:44.658Z,3.27
2019-02-26T00:25:17.826Z,3.23
2019-02-26T00:27:50.257Z,3.25
2019-02-26T00:30:21.602Z,3.32
2019-02-26T00:32:53.231Z,3.22
2019-02-26T00:35:27.683Z,3.28
2019-02-26T00:37:58.081Z,3.27
2019-02-26T00:40:29.601Z,3.29
2019-02-26T00:43:02.542Z,3.32
2019-02-26T00:45:36.238Z,3.31
2019-02-26T00:48:06.977Z,3.38
2019-02-26T00:50:39.811Z,3.28
2019-02-26T00:53:10.413Z,3.26
2019-02-26T00:55:41.678Z,3.20
2019-02-26T00:58:12.931Z,3.20
2019-02-26T01:00:44.186Z,3.12
2019-02-26T01:03:15.483Z,2.98
2019-02-26T01:05:46.705Z,2.98
2019-02-26T01:08:19.715Z,3.05
2019-02-26T01:10:51.101Z,3.03
2019-02-26T01:13:25.011Z,3.07
2019-02-26T01:15:55.388Z,3.05
2019-02-26T01:18:27.229Z,3.03
2019-02-26T01:21:00.251Z,2.90
2019-02-26T01:23:32.666Z,2.80
2019-02-26T01:26:03.956Z,2.81
2019-02-26T01:28:35.238Z,2.68
2019-02-26T01:31:07.366Z,2.66
2019-02-26T01:33:39.042Z,2.64
2019-02-26T01:36:10.286Z,2.62
2019-02-26T01:38:42.159Z,2.54
2019-02-26T01:41:15.571Z,2.57
2019-02-26T01:43:47.602Z,2.67
2019-02-26T01:46:18.998Z,2.64
2019-02-26T01:48:50.227Z,2.45
2019-02-26T01:51:22.304Z,2.46
2019-02-26T01:53:54.438Z,2.47
2019-02-26T01:56:25.666Z,2.45
2019-02-26T01:59:02.063Z,2.51
2019-02-26T02:01:29.161Z,2.47
2019-02-26T02:04:00.508Z,2.49
2019-02-26T02:06:33.103Z,2.56
2019-02-26T02:09:05.069Z,2.57
2019-02-26T02:11:38.033Z,2.60
2019-02-26T02:14:10.347Z,2.57
2019-02-26T02:16:42.492Z,2.66
2019-02-26T02:19:18.029Z,2.64
2019-02-26T02:21:49.314Z,2.80
2019-02-26T02:24:22.846Z,2.89
2019-02-26T02:26:55.671Z,2.88
2019-02-26T02:29:28.622Z,2.84
2019-02-26T02:32:04.453Z,2.96
2019-02-26T02:34:33.108Z,2.99
2019-02-26T02:37:05.088Z,2.98
2019-02-26T02:39:36.325Z,2.98
2019-02-26T02:42:08.356Z,3.09
2019-02-26T02:44:42.189Z,2.99
2019-02-26T02:47:13.617Z,2.92
2019-02-26T02:49:45.101Z,3.00
2019-02-26T02:52:16.394Z,2.86
2019-02-26T02:54:50.024Z,2.88
2019-02-26T02:57:24.299Z,2.89
2019-02-26T02:59:56.883Z,2.80
2019-02-26T03:02:29.019Z,2.75
2019-02-26T03:05:00.404Z,2.85
2019-02-26T03:07:31.649Z,2.88
2019-02-26T03:10:06.672Z,2.82
2019-02-26T03:12:38.275Z,2.88
2019-02-26T03:15:13.082Z,2.94
2019-02-26T03:17:44.396Z,3.00
2019-02-26T03:20:15.753Z,3.03
2019-02-26T03:22:49.174Z,2.96
2019-02-26T03:25:23.343Z,2.92
2019-02-26T03:27:53.118Z,3.04
2019-02-26T03:30:32.225Z,3.03
2019-02-26T03:33:00.389Z,2.98
2019-02-26T03:35:29.932Z,2.99
2019-02-26T03:38:03.599Z,3.03
2019-02-26T03:40:36.151Z,2.92
2019-02-26T03:43:08.372Z,2.95
2019-02-26T03:45:40.647Z,2.97
2019-02-26T03:48:12.092Z,2.92
2019-02-26T03:50:44.605Z,2.81
2019-02-26T03:53:15.996Z,2.73
2019-02-26T03:55:48.344Z,2.54
2019-02-26T03:58:19.631Z,2.50
2019-02-26T04:00:50.919Z,2.39
2019-02-26T04:03:22.257Z,2.31
2019-02-26T04:05:57.172Z,2.28
2019-02-26T04:08:27.770Z,2.22
2019-02-26T04:11:01.980Z,2.32
2019-02-26T04:13:33.679Z,2.41
2019-02-26T04:16:05.164Z,2.35
2019-02-26T04:18:36.474Z,2.37
2019-02-26T04:21:09.456Z,2.44
2019-02-26T04:23:42.142Z,2.50
2019-02-26T04:26:21.099Z,2.62
2019-02-26T04:29:10.218Z,2.60
2019-02-26T04:31:52.173Z,2.66
2019-02-26T04:34:29.245Z,2.62
2019-02-26T04:37:07.181Z,2.68
2019-02-26T04:39:51.251Z,2.59
2019-02-26T04:42:35.210Z,2.44
2019-02-26T04:45:26.969Z,2.54
2019-02-26T04:48:07.200Z,2.53
2019-02-26T04:50:39.418Z,2.56
2019-02-26T04:53:11.472Z,2.65
2019-02-26T04:55:44.920Z,2.58
2019-02-26T04:58:18.406Z,2.60
2019-02-26T05:00:49.401Z,2.74
2019-02-26T05:03:21.644Z,2.79
2019-02-26T05:05:56.529Z,2.74
2019-02-26T05:08:29.218Z,2.86
2019-02-26T05:11:00.003Z,2.97
2019-02-26T05:13:32.625Z,2.95
2019-02-26T05:16:03.935Z,2.99
2019-02-26T05:18:34.993Z,2.90
2019-02-26T05:21:08.259Z,2.93
2019-02-26T05:23:39.154Z,2.89
2019-02-26T05:26:11.657Z,2.86
2019-02-26T05:28:44.239Z,2.89
2019-02-26T05:31:18.154Z,3.04
2019-02-26T05:33:52.535Z,3.06
2019-02-26T05:36:24.502Z,2.93
2019-02-26T05:38:57.557Z,3.15
2019-02-26T05:41:29.054Z,3.22
2019-02-26T05:44:01.850Z,3.24
2019-02-26T05:46:32.564Z,3.23
2019-02-26T05:49:06.876Z,3.25
2019-02-26T05:51:38.214Z,3.33
2019-02-26T05:54:12.285Z,3.40
2019-02-26T05:56:43.583Z,3.82
2019-02-26T05:59:15.422Z,3.79
2019-02-26T06:01:51.951Z,4.03
2019-02-26T06:04:20.985Z,4.01
2019-02-26T06:06:53.898Z,4.15
2019-02-26T06:09:28.092Z,4.29
2019-02-26T06:11:58.606Z,4.33
2019-02-26T06:14:32.963Z,4.37
2019-02-26T06:17:02.192Z,4.22
2019-02-26T06:19:44.763Z,4.09
2019-02-26T06:22:20.129Z,4.13
2019-02-26T06:24:49.464Z,3.72
2019-02-26T06:27:24.583Z,3.78
2019-02-26T06:29:57.465Z,3.98
2019-02-26T06:32:31.972Z,3.94
2019-02-26T06:35:01.486Z,3.79
2019-02-26T06:37:35.096Z,4.05
2019-02-26T06:40:07.478Z,4.08
2019-02-26T06:42:40.346Z,4.27
2019-02-26T06:45:16.292Z,4.47
2019-02-26T06:47:48.479Z,4.66
2019-02-26T06:50:19.628Z,4.63
2019-02-26T06:52:50.946Z,4.49
2019-02-26T06:55:22.278Z,4.57
2019-02-26T06:57:55.186Z,4.59
2019-02-26T07:00:28.923Z,4.49
2019-02-26T07:03:00.131Z,4.41
2019-02-26T07:05:32.828Z,4.40
2019-02-26T07:08:06.520Z,4.49
2019-02-26T07:10:36.641Z,4.59
2019-02-26T07:13:09.447Z,4.77
2019-02-26T07:15:40.311Z,4.80
2019-02-26T07:18:15.025Z,4.81
2019-02-26T07:20:46.822Z,4.87
2019-02-26T07:23:17.094Z,4.84
2019-02-26T07:25:49.473Z,4.77
2019-02-26T07:28:22.844Z,4.74
2019-02-26T07:30:55.217Z,4.68
2019-02-26T07:33:29.296Z,4.58
2019-02-26T07:36:01.830Z,4.77
2019-02-26T07:38:40.856Z,4.88
2019-02-26T07:41:06.311Z,4.59
2019-02-26T07:43:41.069Z,4.34
2019-02-26T07:46:14.518Z,4.37
2019-02-26T07:48:46.166Z,4.34
2019-02-26T07:51:17.916Z,4.56
2019-02-26T07:53:51.650Z,4.54
2019-02-26T07:56:25.520Z,4.67
2019-02-26T07:59:01.309Z,4.43
2019-02-26T08:01:30.112Z,4.32
2019-02-26T08:04:01.480Z,4.42
2019-02-26T08:06:33.901Z,4.40
2019-02-26T08:09:10.969Z,4.42
2019-02-26T08:11:43.806Z,4.60
2019-02-26T08:14:15.777Z,4.85
2019-02-26T08:16:49.279Z,4.98
2019-02-26T08:19:20.161Z,4.79
2019-02-26T08:21:53.095Z,5.01
2019-02-26T08:24:24.758Z,4.91
2019-02-26T08:26:56.101Z,4.89
2019-02-26T08:29:29.396Z,5.01
2019-02-26T08:32:01.797Z,4.95
2019-02-26T08:34:32.677Z,5.05
2019-02-26T08:37:04.046Z,5.16
2019-02-26T08:39:35.699Z,5.16
2019-02-26T08:42:09.477Z,5.36
2019-02-26T08:44:40.943Z,5.26
2019-02-26T08:47:16.220Z,5.52
2019-02-26T08:49:47.507Z,5.52
2019-02-26T08:52:24.108Z,5.94
2019-02-26T08:54:56.119Z,5.91
2019-02-26T08:57:28.657Z,5.83
2019-02-26T09:00:00.030Z,5.69
2019-02-26T09:02:33.743Z,5.78
2019-02-26T09:05:09.341Z,5.62
2019-02-26T09:07:42.599Z,5.71
2019-02-26T09:10:18.387Z,5.48
2019-02-26T09:12:51.947Z,5.73
2019-02-26T09:15:23.556Z,5.72
2019-02-26T09:17:55.269Z,5.47
2019-02-26T09:20:26.810Z,5.41
2019-02-26T09:23:01.489Z,5.48
2019-02-26T09:25:33.982Z,5.55
2019-02-26T09:28:05.676Z,5.60
2019-02-26T09:30:38.849Z,5.60
2019-02-26T09:33:11.128Z,5.84
2019-02-26T09:35:42.703Z,5.82
2019-02-26T09:38:15.143Z,6.05
2019-02-26T09:40:48.223Z,5.96
2019-02-26T09:43:24.338Z,6.00
2019-02-26T09:45:55.239Z,6.13
2019-02-26T09:48:26.630Z,5.86
2019-02-26T09:50:57.915Z,5.71
2019-02-26T09:53:29.731Z,5.96
2019-02-26T09:56:01.159Z,5.65
2019-02-26T09:58:32.910Z,5.75
2019-02-26T10:01:06.884Z,5.71
2019-02-26T10:03:41.317Z,5.69
2019-02-26T10:06:15.898Z,5.67
2019-02-26T10:08:48.979Z,5.94
2019-02-26T10:11:21.238Z,6.56
2019-02-26T10:13:52.232Z,6.90
2019-02-26T10:16:25.635Z,7.04
2019-02-26T10:18:56.892Z,7.33
2019-02-26T10:21:28.465Z,7.56
2019-02-26T10:24:01.799Z,7.58
2019-02-26T10:26:33.547Z,7.34
2019-02-26T10:29:07.974Z,7.03
2019-02-26T10:31:41.102Z,6.40
2019-02-26T10:34:15.090Z,6.34
2019-02-26T10:36:46.581Z,6.04
2019-02-26T10:39:18.592Z,6.07
2019-02-26T10:41:50.203Z,5.71
2019-02-26T10:44:21.713Z,5.84
2019-02-26T10:46:53.044Z,5.70
2019-02-26T10:49:24.440Z,5.73
2019-02-26T10:51:57.873Z,5.63
2019-02-26T10:54:30.927Z,5.66
2019-02-26T10:57:06.404Z,5.48
2019-02-26T10:59:34.739Z,5.66
2019-02-26T11:02:06.144Z,5.30
2019-02-26T11:04:41.835Z,5.25
2019-02-26T11:07:15.239Z,5.11
2019-02-26T11:09:49.398Z,4.83
2019-02-26T11:12:20.601Z,4.93
2019-02-26T11:14:51.600Z,4.81
2019-02-26T11:17:23.669Z,4.85
2019-02-26T11:19:58.452Z,4.59
2019-02-26T11:22:29.103Z,4.52
2019-02-26T11:25:00.959Z,4.27
2019-02-26T11:27:32.789Z,4.39
2019-02-26T11:30:05.319Z,4.10
2019-02-26T11:32:39.923Z,4.01
2019-02-26T11:35:11.229Z,3.94
2019-02-26T11:37:44.892Z,4.12
2019-02-26T11:40:25.274Z,3.97
2019-02-26T11:42:59.590Z,3.98
2019-02-26T11:45:32.863Z,3.93
2019-02-26T11:48:05.983Z,3.95
2019-02-26T11:50:36.088Z,3.83
2019-02-26T11:53:09.892Z,3.84
2019-02-26T11:55:40.748Z,3.83
2019-02-26T11:58:15.991Z,3.79
2019-02-26T12:00:53.023Z,3.87
2019-02-26T12:03:27.225Z,3.81
2019-02-26T12:06:01.222Z,3.79
2019-02-26T12:08:31.986Z,3.62
2019-02-26T12:11:12.557Z,3.54
2019-02-26T12:13:42.843Z,3.51
2019-02-26T12:16:13.257Z,3.70
2019-02-26T12:18:46.845Z,3.60
2019-02-26T12:21:17.402Z,3.63
2019-02-26T12:23:48.762Z,3.71
2019-02-26T12:26:22.214Z,3.76
2019-02-26T12:28:57.163Z,3.77
2019-02-26T12:31:31.158Z,3.79
2019-02-26T12:34:20.852Z,3.83
2019-02-26T12:36:53.729Z,3.62
2019-02-26T12:39:27.940Z,3.45
2019-02-26T12:41:58.657Z,3.60
2019-02-26T12:44:31.911Z,3.65
2019-02-26T12:47:02.303Z,3.74
2019-02-26T12:49:36.526Z,3.90
2019-02-26T12:52:05.968Z,3.95
2019-02-26T12:54:39.773Z,3.98
2019-02-26T12:57:10.294Z,3.90
2019-02-26T12:59:42.805Z,3.83
2019-02-26T13:02:17.036Z,4.02
2019-02-26T13:04:50.095Z,3.89
2019-02-26T13:07:20.498Z,3.58
2019-02-26T13:12:29.675Z,3.70
2019-02-26T13:15:03.192Z,3.71
2019-02-26T13:17:32.281Z,3.71
2019-02-26T13:20:05.988Z,3.67
2019-02-26T13:22:37.755Z,3.67
2019-02-26T13:25:15.545Z,3.57
2019-02-26T13:27:47.432Z,3.60
2019-02-26T13:30:23.967Z,3.55
2019-02-26T13:32:58.123Z,3.51
2019-02-26T13:35:27.548Z,3.44
2019-02-26T13:38:00.558Z,3.35
2019-02-26T13:40:38.303Z,3.38
2019-02-26T13:45:36.137Z,3.50
2019-02-26T13:48:07.494Z,3.35
2019-02-26T13:50:39.155Z,3.39
2019-02-26T13:53:10.602Z,3.41
2019-02-26T13:55:43.442Z,3.43
2019-02-26T13:58:14.146Z,3.44
2019-02-26T14:00:45.509Z,3.34
2019-02-26T14:03:17.012Z,3.29
2019-02-26T14:05:48.432Z,3.19
2019-02-26T14:08:19.839Z,3.32
2019-02-26T14:10:51.088Z,3.59
2019-02-26T14:13:22.541Z,3.42
2019-02-26T14:15:53.765Z,3.29
2019-02-26T14:18:25.148Z,3.30
2019-02-26T14:20:56.416Z,3.28
2019-02-26T14:23:27.768Z,3.19
2019-02-26T14:26:00.010Z,3.31
2019-02-26T14:28:31.426Z,3.25
2019-02-26T14:31:02.736Z,3.37
2019-02-26T14:33:34.120Z,3.27
2019-02-26T14:36:06.112Z,3.29
2019-02-26T14:38:37.380Z,3.29
2019-02-26T14:41:08.954Z,3.17
2019-02-26T14:43:42.574Z,3.15
2019-02-26T14:46:13.963Z,3.10
2019-02-26T14:48:45.221Z,3.13
2019-02-26T14:51:17.771Z,3.11
2019-02-26T14:53:49.222Z,3.03
2019-02-26T14:56:21.074Z,3.05
2019-02-26T14:58:52.367Z,2.99
2019-02-26T15:01:25.256Z,3.06
2019-02-26T15:03:58.255Z,3.20
2019-02-26T15:06:29.567Z,2.92
2019-02-26T15:09:01.000Z,2.95
2019-02-26T15:11:34.035Z,3.00
2019-02-26T15:14:05.747Z,2.95
2019-02-26T15:16:37.283Z,2.86
2019-02-26T15:19:08.870Z,2.90
2019-02-26T15:21:40.629Z,2.84
2019-02-26T15:24:12.127Z,3.03
2019-02-26T15:26:43.503Z,2.98
2019-02-26T15:29:14.782Z,2.91
2019-02-26T15:31:46.105Z,2.74
2019-02-26T15:34:17.417Z,2.83
2019-02-26T15:36:50.633Z,2.90
2019-02-26T15:39:21.955Z,2.86
2019-02-26T15:41:54.162Z,2.86
2019-02-26T15:44:26.123Z,2.93
2019-02-26T15:46:59.589Z,3.13
2019-02-26T15:49:31.763Z,3.10
2019-02-26T15:52:04.723Z,3.07
2019-02-26T15:54:36.335Z,3.00
2019-02-26T15:57:07.653Z,2.99
2019-02-26T15:59:39.041Z,2.97
2019-02-26T16:02:10.414Z,3.08
2019-02-26T16:04:41.786Z,2.97
2019-02-26T16:07:13.234Z,3.07
2019-02-26T16:09:44.525Z,2.98
2019-02-26T16:12:15.793Z,3.05
2019-02-26T16:14:47.204Z,2.90
2019-02-26T16:17:18.508Z,3.09
2019-02-26T16:19:49.870Z,3.10
2019-02-26T16:22:21.183Z,2.98
2019-02-26T16:24:52.463Z,2.92
2019-02-26T16:27:23.786Z,3.11
2019-02-26T16:29:55.049Z,3.04
2019-02-26T16:32:26.610Z,2.95
2019-02-26T16:34:58.573Z,2.83
2019-02-26T16:37:30.183Z,2.90
2019-02-26T16:40:03.228Z,2.91
2019-02-26T16:42:35.066Z,2.92
2019-02-26T16:45:09.454Z,2.96
2019-02-26T16:47:41.283Z,2.90
2019-02-26T16:50:17.196Z,3.00
2019-02-26T16:52:51.278Z,2.99
2019-02-26T16:55:23.051Z,2.92
2019-02-26T16:57:54.347Z,3.07
2019-02-26T17:00:29.892Z,2.91
2019-02-26T17:03:01.448Z,2.94
2019-02-26T17:05:32.924Z,2.93
2019-02-26T17:08:04.237Z,2.91
2019-02-26T17:10:35.574Z,2.83
2019-02-26T17:13:06.823Z,2.97
2019-02-26T17:15:38.115Z,2.84
2019-02-26T17:18:10.332Z,2.86
2019-02-26T17:20:41.900Z,2.83
2019-02-26T17:23:14.817Z,2.77
2019-02-26T17:25:46.205Z,2.84
2019-02-26T17:28:17.597Z,2.75
2019-02-26T17:30:48.887Z,2.96
2019-02-26T17:33:20.157Z,2.82
2019-02-26T17:35:52.894Z,2.75
2019-02-26T17:38:26.020Z,2.78
2019-02-26T17:40:57.534Z,2.71
2019-02-26T17:43:29.174Z,2.79
2019-02-26T17:46:00.520Z,2.80
2019-02-26T17:48:43.041Z,2.92
2019-02-26T17:51:05.155Z,2.70
2019-02-26T17:53:36.572Z,2.86
2019-02-26T17:56:09.884Z,2.86
2019-02-26T17:58:41.744Z,2.72
2019-02-26T18:01:14.089Z,2.66
2019-02-26T18:03:45.485Z,2.70
2019-02-26T18:06:16.795Z,2.68
2019-02-26T18:08:48.227Z,2.72
2019-02-26T18:11:20.866Z,2.70
2019-02-26T18:13:52.548Z,2.63
2019-02-26T18:16:23.811Z,2.87
2019-02-26T18:18:55.075Z,2.72
2019-02-26T18:21:26.306Z,2.80
2019-02-26T18:23:57.595Z,2.74
2019-02-26T18:26:28.817Z,2.68
2019-02-26T18:29:00.106Z,2.68
2019-02-26T18:31:31.728Z,2.70
2019-02-26T18:34:03.245Z,2.84
2019-02-26T18:36:34.752Z,2.73
2019-02-26T18:39:06.830Z,2.76
2019-02-26T18:41:38.753Z,2.70
2019-02-26T18:44:10.338Z,2.56
2019-02-26T18:46:41.756Z,2.70
2019-02-26T18:49:13.050Z,2.69
2019-02-26T18:51:44.459Z,2.55
2019-02-26T18:54:17.718Z,2.64
2019-02-26T18:56:49.914Z,2.50
2019-02-26T18:59:21.609Z,2.57
2019-02-26T19:01:53.472Z,2.62
2019-02-26T19:04:24.813Z,2.51
2019-02-26T19:06:59.415Z,2.56
2019-02-26T19:09:29.258Z,2.69
2019-02-26T19:12:00.581Z,2.63
2019-02-26T19:14:31.988Z,2.68
2019-02-26T19:17:03.289Z,2.56
2019-02-26T19:19:34.651Z,2.59
2019-02-26T19:22:06.034Z,2.66
2019-02-26T19:24:38.374Z,2.45
2019-02-26T19:27:10.628Z,2.50
2019-02-26T19:29:41.994Z,2.36
2019-02-26T19:32:15.483Z,2.60
2019-02-26T19:34:46.526Z,2.52
2019-02-26T19:37:19.138Z,2.52
2019-02-26T19:39:50.859Z,2.60
2019-02-26T19:42:21.990Z,2.70
2019-02-26T19:44:53.287Z,2.62
2019-02-26T19:47:24.569Z,2.52
2019-02-26T19:49:55.850Z,2.79
2019-02-26T19:52:27.158Z,2.61
2019-02-26T19:54:59.599Z,2.67
2019-02-26T19:57:30.976Z,2.68
2019-02-26T20:00:02.341Z,2.45
2019-02-26T20:02:34.687Z,2.38
2019-02-26T20:05:09.528Z,2.43
2019-02-26T20:07:41.656Z,2.42
2019-02-26T20:10:16.098Z,2.55
2019-02-26T20:12:47.337Z,2.63
2019-02-26T20:15:21.720Z,2.54
2019-02-26T20:17:51.602Z,2.55
2019-02-26T20:20:22.910Z,2.72
2019-02-26T20:22:54.238Z,2.63
2019-02-26T20:25:25.602Z,2.59
2019-02-26T20:28:04.834Z,2.60
2019-02-26T20:30:29.992Z,2.51
2019-02-26T20:33:01.562Z,2.56
2019-02-26T20:35:34.350Z,2.53
2019-02-26T20:38:05.679Z,2.56
2019-02-26T20:40:37.075Z,2.62
2019-02-26T20:43:08.365Z,2.54
2019-02-26T20:45:39.637Z,2.44
2019-02-26T20:48:11.056Z,2.52
2019-02-26T20:50:42.390Z,2.42
2019-02-26T20:53:13.604Z,2.56
2019-02-26T20:55:52.273Z,2.65
2019-02-26T20:58:18.118Z,2.54
2019-02-26T21:00:49.396Z,2.52
2019-02-26T21:03:20.721Z,2.52
2019-02-26T21:05:51.951Z,2.49
2019-02-26T21:08:23.155Z,2.37
2019-02-26T21:10:54.430Z,2.37
2019-02-26T21:13:25.728Z,2.35
2019-02-26T21:15:57.011Z,2.40
2019-02-26T21:18:30.338Z,2.53
2019-02-26T21:21:01.397Z,2.48
2019-02-26T21:23:32.768Z,2.52
2019-02-26T21:26:04.070Z,2.33
2019-02-26T21:28:35.429Z,2.51
2019-02-26T21:31:06.680Z,2.48
2019-02-26T21:33:37.989Z,2.29
2019-02-26T21:36:09.437Z,2.33
2019-02-26T21:38:40.750Z,2.30
2019-02-26T21:41:12.127Z,2.37
2019-02-26T21:43:43.398Z,2.30
2019-02-26T21:46:14.697Z,2.41
2019-02-26T21:48:45.986Z,2.41
2019-02-26T21:51:17.284Z,2.44
2019-02-26T21:53:49.230Z,2.41
2019-02-26T21:56:22.234Z,2.26
2019-02-26T21:58:54.212Z,2.46
2019-02-26T22:01:25.919Z,2.43
2019-02-26T22:03:58.597Z,2.39
2019-02-26T22:06:30.168Z,2.36
2019-02-26T22:09:01.460Z,2.32
2019-02-26T22:11:34.306Z,2.35
2019-02-26T22:14:05.696Z,2.27
2019-02-26T22:16:36.931Z,2.47
2019-02-26T22:19:08.225Z,2.39
2019-02-26T22:21:41.058Z,2.27
2019-02-26T22:24:12.313Z,2.07
2019-02-26T22:26:43.550Z,2.16
2019-02-26T22:29:15.303Z,2.26
2019-02-26T22:31:47.196Z,2.39
2019-02-26T22:34:19.074Z,2.44
2019-02-26T22:36:51.118Z,2.44
2019-02-26T22:39:23.259Z,2.36
2019-02-26T22:41:54.750Z,2.28
2019-02-26T22:44:27.175Z,2.32
2019-02-26T22:46:59.201Z,2.34
2019-02-26T22:49:30.663Z,2.14
2019-02-26T22:52:01.860Z,2.30
2019-02-26T22:54:35.001Z,2.45
2019-02-26T22:57:07.630Z,2.22
2019-02-26T22:59:40.832Z,2.38
2019-02-26T23:02:12.291Z,2.41
2019-02-26T23:04:44.909Z,2.21
2019-02-26T23:07:16.574Z,2.28
2019-02-26T23:09:52.182Z,2.33
2019-02-26T23:12:21.558Z,2.26
2019-02-26T23:14:52.906Z,2.32
2019-02-26T23:17:25.392Z,2.33
2019-02-26T23:19:56.733Z,2.11
2019-02-26T23:22:28.327Z,2.15
2019-02-26T23:25:00.868Z,2.06
2019-02-26T23:27:33.098Z,2.05
2019-02-26T23:30:08.183Z,2.14
2019-02-26T23:32:40.848Z,2.26
2019-02-26T23:35:13.024Z,2.26
2019-02-26T23:37:44.503Z,2.33
2019-02-26T23:40:16.124Z,2.15
2019-02-26T23:42:47.886Z,2.22
2019-02-26T23:45:19.340Z,2.16
2019-02-26T23:47:51.094Z,2.17
2019-02-26T23:50:22.753Z,2.07
2019-02-26T23:52:54.615Z,1.99
2019-02-26T23:55:26.178Z,2.15
2019-02-26T23:57:58.524Z,2.18
